createdAt,value
2019-05-25T00:00:12.470Z,6.75
2019-05-25T00:02:42.771Z,6.87
2019-05-25T00:05:13.662Z,13.03
2019-05-25T00:07:43.934Z,9.40
2019-05-25T00:10:14.629Z,6.33
2019-05-25T00:12:44.913Z,5.87
2019-05-25T00:15:15.507Z,7.60
2019-05-25T00:17:45.793Z,7.85
2019-05-25T00:20:16.474Z,7.25
2019-05-25T00:22:46.759Z,9.15
2019-05-25T00:25:17.033Z,7.47
2019-05-25T00:27:47.323Z,7.37
2019-05-25T00:30:17.740Z,10.18
2019-05-25T00:32:48.036Z,9.08
2019-05-25T00:35:18.339Z,8.23
2019-05-25T00:37:48.600Z,7.27
2019-05-25T00:40:18.898Z,7.47
2019-05-25T00:42:49.245Z,7.57
2019-05-25T00:45:19.529Z,7.40
2019-05-25T00:47:49.819Z,9.90
2019-05-25T00:50:20.164Z,9.83
2019-05-25T00:52:50.515Z,8.90
2019-05-25T00:55:20.802Z,10.35
2019-05-25T00:57:52.788Z,8.43
2019-05-25T01:00:23.168Z,10.33
2019-05-25T01:02:53.457Z,8.28
2019-05-25T01:05:23.738Z,9.38
2019-05-25T01:07:54.013Z,8.75
2019-05-25T01:10:24.311Z,11.28
2019-05-25T01:12:54.607Z,15.60
2019-05-25T01:15:25.801Z,9.40
2019-05-25T01:17:56.085Z,8.57
2019-05-25T01:20:27.478Z,8.70
2019-05-25T01:22:57.770Z,6.60
2019-05-25T01:25:28.061Z,9.07
2019-05-25T01:27:58.347Z,7.45
2019-05-25T01:30:28.766Z,5.72
2019-05-25T01:32:59.466Z,6.90
2019-05-25T01:35:29.741Z,8.92
2019-05-25T01:38:00.034Z,6.42
2019-05-25T01:40:30.308Z,6.08
2019-05-25T01:43:00.596Z,7.17
2019-05-25T01:45:30.893Z,5.23
2019-05-25T01:48:01.451Z,8.40
2019-05-25T01:50:31.728Z,6.83
2019-05-25T01:53:02.023Z,5.90
2019-05-25T01:55:32.293Z,6.00
2019-05-25T01:58:05.188Z,7.10
2019-05-25T02:00:35.443Z,5.50
2019-05-25T02:03:05.726Z,7.37
2019-05-25T02:05:36.017Z,6.72
2019-05-25T02:08:06.294Z,4.72
2019-05-25T02:10:36.587Z,6.40
2019-05-25T02:13:06.870Z,5.70
2019-05-25T02:15:37.163Z,4.90
2019-05-25T02:18:07.761Z,5.95
2019-05-25T02:20:38.053Z,7.20
2019-05-25T02:23:08.347Z,11.18
2019-05-25T02:25:39.113Z,7.47
2019-05-25T02:28:09.399Z,8.58
2019-05-25T02:30:40.003Z,7.27
2019-05-25T02:33:10.541Z,7.37
2019-05-25T02:35:40.871Z,5.12
2019-05-25T02:38:11.109Z,5.62
2019-05-25T02:40:41.402Z,6.43
2019-05-25T02:43:11.750Z,5.08
2019-05-25T02:45:42.037Z,5.60
2019-05-25T02:48:12.327Z,4.97
2019-05-25T02:50:42.619Z,5.30
2019-05-25T02:53:12.909Z,4.97
2019-05-25T02:55:43.193Z,4.90
2019-05-25T02:58:13.483Z,5.43
2019-05-25T03:00:44.303Z,4.90
2019-05-25T03:03:14.679Z,7.37
2019-05-25T03:05:46.296Z,6.80
2019-05-25T03:08:16.947Z,5.03
2019-05-25T03:10:49.542Z,4.95
2019-05-25T03:13:21.288Z,6.67
2019-05-25T03:15:52.331Z,7.05
2019-05-25T03:18:22.625Z,6.08
2019-05-25T03:20:52.908Z,5.33
2019-05-25T03:23:23.183Z,7.33
2019-05-25T03:25:53.482Z,6.10
2019-05-25T03:28:23.758Z,6.70
2019-05-25T03:30:54.053Z,6.65
2019-05-25T03:33:24.344Z,5.30
2019-05-25T03:35:54.710Z,4.65
2019-05-25T03:38:24.996Z,7.70
2019-05-25T03:40:55.544Z,6.80
2019-05-25T03:43:25.829Z,6.62
2019-05-25T03:45:56.105Z,8.38
2019-05-25T03:48:26.389Z,7.33
2019-05-25T03:50:57.862Z,6.65
2019-05-25T03:53:28.172Z,9.05
2019-05-25T03:56:05.701Z,7.83
2019-05-25T03:58:30.424Z,8.03
2019-05-25T04:01:01.824Z,6.75
2019-05-25T04:03:32.453Z,9.45
2019-05-25T04:06:02.736Z,7.15
2019-05-25T04:08:33.324Z,7.28
2019-05-25T04:11:03.940Z,7.30
2019-05-25T04:13:34.237Z,9.75
2019-05-25T04:16:04.603Z,8.75
2019-05-25T04:18:34.868Z,6.67
2019-05-25T04:21:05.150Z,7.53
2019-05-25T04:23:35.444Z,7.40
2019-05-25T04:26:21.472Z,5.28
2019-05-25T04:28:38.169Z,6.70
2019-05-25T04:31:08.476Z,5.97
2019-05-25T04:33:38.754Z,6.03
2019-05-25T04:36:09.110Z,5.30
2019-05-25T04:38:39.350Z,4.90
2019-05-25T04:41:09.994Z,5.40
2019-05-25T04:43:40.271Z,6.50
2019-05-25T04:46:10.788Z,6.25
2019-05-25T04:48:41.313Z,5.62
2019-05-25T04:51:11.657Z,6.60
2019-05-25T04:53:41.916Z,8.20
2019-05-25T04:56:12.191Z,7.35
2019-05-25T04:58:42.490Z,6.58
2019-05-25T05:01:12.755Z,7.95
2019-05-25T05:03:43.043Z,8.93
2019-05-25T05:06:13.333Z,8.58
2019-05-25T05:08:43.620Z,6.85
2019-05-25T05:11:14.206Z,5.53
2019-05-25T05:13:44.492Z,9.85
2019-05-25T05:16:14.790Z,9.75
2019-05-25T05:18:45.070Z,8.30
2019-05-25T05:21:16.332Z,10.95
2019-05-25T05:23:46.626Z,9.68
2019-05-25T05:26:17.073Z,9.13
2019-05-25T05:28:49.231Z,11.05
2019-05-25T05:31:23.470Z,8.43
2019-05-25T05:33:51.595Z,9.33
2019-05-25T05:36:24.299Z,7.65
2019-05-25T05:38:56.478Z,7.70
2019-05-25T05:41:31.064Z,8.55
2019-05-25T05:44:01.518Z,8.73
2019-05-25T05:46:33.397Z,6.87
2019-05-25T05:49:04.808Z,6.83
2019-05-25T05:51:36.723Z,7.12
2019-05-25T05:54:07.483Z,7.85
2019-05-25T05:56:37.756Z,4.95
2019-05-25T05:59:08.052Z,4.85
2019-05-25T06:01:38.338Z,5.33
2019-05-25T06:04:08.631Z,10.28
2019-05-25T06:06:38.918Z,5.35
2019-05-25T06:09:09.271Z,4.77
2019-05-25T06:11:39.553Z,7.83
2019-05-25T06:14:10.117Z,15.88
2019-05-25T06:16:40.389Z,5.73
2019-05-25T06:19:10.969Z,6.78
2019-05-25T06:21:41.246Z,5.67
2019-05-25T06:24:11.823Z,7.90
2019-05-25T06:26:42.114Z,6.22
2019-05-25T06:29:12.390Z,4.40
2019-05-25T06:31:43.632Z,6.47
2019-05-25T06:34:13.902Z,6.95
2019-05-25T06:36:44.180Z,5.27
2019-05-25T06:39:14.460Z,6.10
2019-05-25T06:41:44.745Z,6.72
2019-05-25T06:44:15.029Z,6.60
2019-05-25T06:46:45.316Z,5.42
2019-05-25T06:49:15.594Z,6.65
2019-05-25T06:51:45.879Z,5.78
2019-05-25T06:54:16.151Z,9.47
2019-05-25T06:56:46.428Z,5.58
2019-05-25T06:59:16.714Z,7.03
2019-05-25T07:01:46.994Z,9.20
2019-05-25T07:04:17.273Z,7.00
2019-05-25T07:06:48.122Z,7.40
2019-05-25T07:09:18.422Z,6.87
2019-05-25T07:11:49.157Z,7.12
2019-05-25T07:14:19.673Z,7.60
2019-05-25T07:16:49.942Z,6.87
2019-05-25T07:19:20.461Z,7.37
2019-05-25T07:21:50.775Z,11.57
2019-05-25T07:24:21.045Z,7.70
2019-05-25T07:26:51.325Z,6.50
2019-05-25T07:29:21.600Z,6.03
2019-05-25T07:31:51.981Z,6.93
2019-05-25T07:34:22.259Z,6.65
2019-05-25T07:36:52.612Z,11.00
2019-05-25T07:39:22.891Z,6.78
2019-05-25T07:41:53.174Z,7.67
2019-05-25T07:44:23.753Z,6.50
2019-05-25T07:46:54.986Z,7.96
2019-05-25T07:49:25.287Z,8.05
2019-05-25T07:51:55.559Z,5.75
2019-05-25T07:54:26.230Z,6.85
2019-05-25T07:56:56.518Z,12.50
2019-05-25T07:59:38.642Z,7.67
2019-05-25T08:02:08.987Z,7.87
2019-05-25T08:04:39.275Z,10.68
2019-05-25T08:07:09.561Z,7.70
2019-05-25T08:09:39.846Z,7.45
2019-05-25T08:12:11.280Z,7.62
2019-05-25T08:14:44.918Z,12.37
2019-05-25T08:17:13.570Z,10.82
2019-05-25T08:19:43.927Z,8.35
2019-05-25T08:22:14.485Z,6.70
2019-05-25T08:24:44.762Z,5.45
2019-05-25T08:27:15.437Z,7.40
2019-05-25T08:29:45.716Z,7.35
2019-05-25T08:32:16.001Z,8.40
2019-05-25T08:34:46.513Z,6.40
2019-05-25T08:37:16.795Z,6.72
2019-05-25T08:39:47.080Z,6.57
2019-05-25T08:42:17.363Z,8.30
2019-05-25T08:44:47.631Z,5.72
2019-05-25T08:47:17.912Z,8.83
2019-05-25T08:49:48.426Z,8.66
2019-05-25T08:52:18.730Z,5.70
2019-05-25T08:54:48.999Z,8.08
2019-05-25T08:57:19.289Z,5.85
2019-05-25T08:59:50.875Z,7.53
2019-05-25T09:02:24.039Z,5.67
2019-05-25T09:04:57.069Z,3.35
2019-05-25T09:07:27.349Z,6.58
2019-05-25T09:09:57.630Z,6.57
2019-05-25T09:12:27.904Z,4.08
2019-05-25T09:14:58.192Z,6.55
2019-05-25T09:17:28.476Z,6.95
2019-05-25T09:19:58.757Z,5.58
2019-05-25T09:22:29.029Z,4.37
2019-05-25T09:24:59.564Z,6.70
2019-05-25T09:27:29.840Z,4.83
2019-05-25T09:30:00.144Z,4.50
2019-05-25T09:32:48.438Z,2.58
2019-05-25T09:35:18.927Z,2.92
2019-05-25T09:37:49.209Z,4.28
2019-05-25T09:40:19.738Z,3.77
2019-05-25T09:42:50.096Z,2.92
2019-05-25T09:45:20.349Z,3.00
2019-05-25T09:47:50.626Z,6.80
2019-05-25T09:50:20.900Z,2.77
2019-05-25T09:52:51.186Z,4.33
2019-05-25T09:55:21.455Z,3.17
2019-05-25T09:57:51.766Z,2.50
2019-05-25T10:00:22.354Z,3.90
2019-05-25T10:02:52.765Z,2.52
2019-05-25T10:05:23.020Z,1.20
2019-05-25T10:07:53.294Z,2.02
2019-05-25T10:10:24.613Z,1.78
2019-05-25T10:12:56.037Z,1.47
2019-05-25T10:15:28.367Z,2.00
2019-05-25T10:17:58.291Z,1.72
2019-05-25T10:20:28.566Z,1.27
2019-05-25T10:22:58.841Z,3.15
2019-05-25T10:25:29.124Z,4.25
2019-05-25T10:27:59.395Z,2.77
2019-05-25T10:30:29.678Z,11.70
2019-05-25T10:33:01.441Z,1.55
2019-05-25T10:35:31.733Z,6.60
2019-05-25T10:38:02.135Z,2.62
2019-05-25T10:40:32.376Z,1.82
2019-05-25T10:43:02.834Z,3.77
2019-05-25T10:45:33.166Z,2.85
2019-05-25T10:48:03.777Z,1.97
2019-05-25T10:50:34.021Z,2.47
2019-05-25T10:53:04.403Z,3.12
2019-05-25T10:55:34.680Z,2.72
2019-05-25T10:58:05.970Z,2.78
2019-05-25T11:00:36.301Z,3.75
2019-05-25T11:03:06.530Z,2.47
2019-05-25T11:05:36.809Z,3.08
2019-05-25T11:08:07.090Z,2.50
2019-05-25T11:10:37.386Z,1.27
2019-05-25T11:13:07.664Z,1.72
2019-05-25T11:15:37.946Z,1.43
2019-05-25T11:18:08.294Z,2.45
2019-05-25T11:20:38.581Z,2.13
2019-05-25T11:23:08.931Z,1.37
2019-05-25T11:25:39.198Z,2.92
2019-05-25T11:28:09.483Z,2.27
2019-05-25T11:30:39.804Z,1.65
2019-05-25T11:33:10.042Z,4.23
2019-05-25T11:35:40.706Z,2.45
2019-05-25T11:38:10.988Z,4.50
2019-05-25T11:40:41.339Z,4.10
2019-05-25T11:43:11.629Z,3.05
2019-05-25T11:45:45.228Z,2.60
2019-05-25T11:48:14.469Z,1.20
2019-05-25T11:50:44.747Z,1.92
2019-05-25T11:53:15.043Z,1.77
2019-05-25T11:55:45.314Z,1.57
2019-05-25T11:58:15.604Z,1.80
2019-05-25T12:00:45.881Z,2.20
2019-05-25T12:03:16.166Z,1.10
2019-05-25T12:05:46.441Z,2.67
2019-05-25T12:08:16.728Z,1.77
2019-05-25T12:10:48.010Z,1.80
2019-05-25T12:13:18.297Z,2.13
2019-05-25T12:15:48.573Z,1.12
2019-05-25T12:18:18.858Z,2.85
2019-05-25T12:20:49.141Z,2.33
2019-05-25T12:23:20.068Z,2.58
2019-05-25T12:25:50.352Z,1.30
2019-05-25T12:28:20.627Z,6.17
2019-05-25T12:30:50.913Z,2.00
2019-05-25T12:33:21.187Z,4.03
2019-05-25T12:35:51.487Z,5.08
2019-05-25T12:38:21.763Z,1.85
2019-05-25T12:40:53.926Z,4.40
2019-05-25T12:43:24.377Z,1.10
2019-05-25T12:45:55.017Z,2.95
2019-05-25T12:48:25.299Z,3.72
2019-05-25T12:50:55.694Z,0.70
2019-05-25T12:53:25.977Z,1.70
2019-05-25T12:55:56.512Z,2.10
2019-05-25T12:58:26.797Z,1.32
2019-05-25T13:00:57.494Z,1.36
2019-05-25T13:03:28.535Z,2.75
2019-05-25T13:05:59.165Z,1.87
2019-05-25T13:08:29.458Z,1.47
2019-05-25T13:10:59.736Z,0.97
2019-05-25T13:13:30.023Z,1.60
2019-05-25T13:16:00.306Z,1.77
2019-05-25T13:18:30.970Z,2.97
2019-05-25T13:21:01.266Z,2.12
2019-05-25T13:23:31.535Z,1.02
2019-05-25T13:26:01.819Z,1.23
2019-05-25T13:28:32.089Z,2.05
2019-05-25T13:31:11.442Z,1.92
2019-05-25T13:33:34.387Z,3.72
2019-05-25T13:36:04.743Z,3.67
2019-05-25T13:38:35.048Z,2.37
2019-05-25T13:41:05.639Z,3.25
2019-05-25T13:43:35.912Z,3.98
2019-05-25T13:46:06.188Z,1.95
2019-05-25T13:48:36.493Z,2.62
2019-05-25T13:51:06.985Z,2.20
2019-05-25T13:53:37.265Z,1.27
2019-05-25T13:56:07.542Z,1.20
2019-05-25T13:58:39.237Z,0.90
2019-05-25T14:01:09.581Z,1.95
2019-05-25T14:03:39.885Z,3.33
2019-05-25T14:06:10.176Z,2.30
2019-05-25T14:08:40.452Z,1.80
2019-05-25T14:11:10.736Z,1.10
2019-05-25T14:13:41.783Z,1.70
2019-05-25T14:16:12.057Z,2.67
2019-05-25T14:18:42.557Z,1.57
2019-05-25T14:21:12.843Z,2.35
2019-05-25T14:23:43.112Z,1.93
2019-05-25T14:26:13.384Z,1.95
2019-05-25T14:28:43.653Z,3.26
2019-05-25T14:31:13.940Z,1.47
2019-05-25T14:33:44.264Z,2.62
2019-05-25T14:36:14.540Z,2.30
2019-05-25T14:38:45.028Z,1.72
2019-05-25T14:41:15.305Z,1.95
2019-05-25T14:43:46.056Z,2.00
2019-05-25T14:46:27.440Z,5.58
2019-05-25T14:48:48.397Z,4.55
2019-05-25T14:51:18.669Z,2.85
2019-05-25T14:53:48.947Z,4.17
2019-05-25T14:56:19.215Z,3.63
2019-05-25T14:58:49.527Z,3.33
2019-05-25T15:01:19.809Z,1.92
2019-05-25T15:03:50.084Z,2.98
2019-05-25T15:06:21.099Z,2.10
2019-05-25T15:08:51.434Z,3.58
2019-05-25T15:11:21.704Z,4.00
2019-05-25T15:13:51.982Z,3.58
2019-05-25T15:16:22.265Z,1.32
2019-05-25T15:18:53.533Z,1.58
2019-05-25T15:21:23.977Z,1.40
2019-05-25T15:23:54.327Z,2.67
2019-05-25T15:26:24.605Z,2.83
2019-05-25T15:28:54.887Z,2.75
2019-05-25T15:31:25.198Z,1.47
2019-05-25T15:33:55.466Z,2.35
2019-05-25T15:36:25.754Z,2.10
2019-05-25T15:38:56.324Z,2.92
2019-05-25T15:41:26.604Z,2.98
2019-05-25T15:43:56.872Z,2.83
2019-05-25T15:46:27.139Z,2.70
2019-05-25T15:48:57.422Z,2.60
2019-05-25T15:51:28.437Z,4.25
2019-05-25T15:53:58.709Z,3.07
2019-05-25T15:56:28.987Z,2.77
2019-05-25T15:58:59.259Z,2.92
2019-05-25T16:01:31.718Z,4.10
2019-05-25T16:04:02.341Z,3.80
2019-05-25T16:06:32.628Z,2.67
2019-05-25T16:09:03.382Z,5.93
2019-05-25T16:11:33.705Z,3.17
2019-05-25T16:14:06.904Z,4.53
2019-05-25T16:16:35.998Z,3.30
2019-05-25T16:19:06.277Z,3.12
2019-05-25T16:21:36.554Z,4.40
2019-05-25T16:24:08.232Z,3.15
2019-05-25T16:26:46.065Z,4.22
2019-05-25T16:29:10.582Z,5.22
2019-05-25T16:31:40.871Z,5.30
2019-05-25T16:34:11.375Z,3.67
2019-05-25T16:36:41.658Z,4.35
2019-05-25T16:39:12.000Z,3.70
2019-05-25T16:41:42.529Z,4.13
2019-05-25T16:44:12.806Z,3.56
2019-05-25T16:46:43.090Z,4.83
2019-05-25T16:49:13.386Z,5.12
2019-05-25T16:51:44.156Z,5.85
2019-05-25T16:54:14.437Z,4.90
2019-05-25T16:56:44.714Z,4.10
2019-05-25T16:59:15.258Z,5.58
2019-05-25T17:01:48.512Z,7.97
2019-05-25T17:04:17.590Z,4.47
2019-05-25T17:06:47.902Z,6.03
2019-05-25T17:09:18.191Z,5.58
2019-05-25T17:11:48.463Z,5.83
2019-05-25T17:14:18.748Z,5.12
2019-05-25T17:16:49.310Z,5.60
2019-05-25T17:19:19.956Z,5.20
2019-05-25T17:21:50.218Z,3.98
2019-05-25T17:24:20.814Z,6.67
2019-05-25T17:26:51.096Z,4.30
2019-05-25T17:29:21.384Z,4.18
2019-05-25T17:31:51.655Z,5.17
2019-05-25T17:34:21.940Z,4.72
2019-05-25T17:36:52.285Z,4.10
2019-05-25T17:39:22.572Z,3.50
2019-05-25T17:41:52.897Z,3.98
2019-05-25T17:44:23.176Z,4.10
2019-05-25T17:46:53.464Z,3.00
2019-05-25T17:49:23.777Z,6.03
2019-05-25T17:51:54.049Z,3.98
2019-05-25T17:54:24.329Z,3.05
2019-05-25T17:56:54.914Z,4.80
2019-05-25T17:59:25.189Z,4.10
2019-05-25T18:01:55.476Z,4.62
2019-05-25T18:04:25.753Z,4.63
2019-05-25T18:06:56.405Z,2.40
2019-05-25T18:09:26.691Z,3.18
2019-05-25T18:11:56.986Z,3.47
2019-05-25T18:14:27.262Z,3.08
2019-05-25T18:16:58.163Z,3.60
2019-05-25T18:19:28.450Z,5.78
2019-05-25T18:21:59.202Z,5.83
2019-05-25T18:24:29.599Z,2.95
2019-05-25T18:26:59.874Z,3.67
2019-05-25T18:29:30.160Z,3.17
2019-05-25T18:32:00.438Z,4.17
2019-05-25T18:34:31.007Z,2.62
2019-05-25T18:37:01.276Z,3.92
2019-05-25T18:39:31.564Z,4.07
2019-05-25T18:42:01.834Z,4.72
2019-05-25T18:44:32.136Z,3.47
2019-05-25T18:47:02.409Z,5.50
2019-05-25T18:49:32.969Z,2.70
2019-05-25T18:52:03.339Z,4.67
2019-05-25T18:54:33.604Z,2.95
2019-05-25T18:57:08.530Z,3.37
2019-05-25T18:59:36.225Z,3.70
2019-05-25T19:02:06.579Z,3.73
2019-05-25T19:04:47.611Z,4.20
2019-05-25T19:07:09.059Z,4.25
2019-05-25T19:09:39.577Z,5.42
2019-05-25T19:12:10.099Z,3.90
2019-05-25T19:14:40.709Z,7.83
2019-05-25T19:17:10.990Z,3.70
2019-05-25T19:19:41.268Z,4.03
2019-05-25T19:22:11.567Z,3.67
2019-05-25T19:24:41.837Z,5.25
2019-05-25T19:27:12.105Z,5.28
2019-05-25T19:29:42.398Z,4.58
2019-05-25T19:32:12.675Z,2.60
2019-05-25T19:34:58.497Z,2.10
2019-05-25T19:37:19.140Z,2.33
2019-05-25T19:39:47.447Z,5.40
2019-05-25T19:42:17.724Z,3.37
2019-05-25T19:44:48.001Z,2.87
2019-05-25T19:47:18.290Z,5.03
2019-05-25T19:49:49.201Z,20.65
2019-05-25T19:52:19.483Z,23.50
2019-05-25T19:54:50.103Z,16.95
2019-05-25T19:57:20.377Z,5.87
2019-05-25T19:59:50.662Z,4.37
2019-05-25T20:02:20.938Z,5.47
2019-05-25T20:04:51.763Z,8.30
2019-05-25T20:07:22.036Z,12.00
2019-05-25T20:09:52.663Z,8.03
2019-05-25T20:12:22.950Z,4.45
2019-05-25T20:14:53.220Z,6.58
2019-05-25T20:17:23.505Z,2.90
2019-05-25T20:19:53.773Z,2.70
2019-05-25T20:22:24.065Z,3.92
2019-05-25T20:24:54.412Z,3.70
2019-05-25T20:27:24.722Z,5.25
2019-05-25T20:29:55.009Z,6.10
2019-05-25T20:32:26.504Z,5.87
2019-05-25T20:34:57.906Z,7.67
2019-05-25T20:37:28.220Z,18.80
2019-05-25T20:39:58.473Z,9.78
2019-05-25T20:42:28.770Z,4.45
2019-05-25T20:44:59.048Z,5.77
2019-05-25T20:47:29.330Z,4.30
2019-05-25T20:49:59.613Z,4.45
2019-05-25T20:52:29.880Z,4.67
2019-05-25T20:55:00.195Z,3.12
2019-05-25T20:57:30.473Z,10.53
2019-05-25T21:00:00.750Z,4.65
2019-05-25T21:02:31.563Z,3.12
2019-05-25T21:05:01.875Z,6.17
2019-05-25T21:07:32.149Z,3.52
2019-05-25T21:10:02.923Z,3.92
2019-05-25T21:12:33.203Z,5.67
2019-05-25T21:15:05.131Z,4.03
2019-05-25T21:17:35.440Z,4.37
2019-05-25T21:20:09.646Z,6.25
2019-05-25T21:25:09.592Z,4.17
2019-05-25T21:27:40.110Z,4.00
2019-05-25T21:30:10.728Z,5.20
2019-05-25T21:32:41.038Z,19.73
2019-05-25T21:35:12.068Z,12.10
2019-05-25T21:37:42.373Z,6.50
2019-05-25T21:40:13.384Z,4.30
2019-05-25T21:42:43.675Z,5.70
2019-05-25T21:45:14.624Z,4.87
2019-05-25T21:47:44.917Z,4.90
2019-05-25T21:50:15.620Z,4.55
2019-05-25T21:52:45.907Z,4.40
2019-05-25T21:55:16.277Z,5.80
2019-05-25T21:57:46.563Z,18.92
2019-05-25T22:00:19.741Z,6.70
2019-05-25T22:02:50.017Z,6.23
2019-05-25T22:05:20.623Z,3.83
2019-05-25T22:07:50.905Z,4.25
2019-05-25T22:10:21.245Z,3.87
2019-05-25T22:12:51.548Z,4.72
2019-05-25T22:15:21.831Z,4.17
2019-05-25T22:17:52.131Z,6.13
2019-05-25T22:20:22.485Z,6.08
2019-05-25T22:22:52.773Z,3.60
2019-05-25T22:25:23.050Z,3.42
2019-05-25T22:27:53.347Z,3.50
2019-05-25T22:30:24.031Z,5.60
2019-05-25T22:32:54.460Z,5.25
2019-05-25T22:35:24.747Z,4.70
2019-05-25T22:37:55.331Z,5.92
2019-05-25T22:40:34.441Z,4.67
2019-05-25T22:43:05.093Z,5.92
2019-05-25T22:45:35.385Z,6.45
2019-05-25T22:48:05.666Z,11.80
2019-05-25T22:50:36.038Z,9.95
2019-05-25T22:53:06.602Z,9.15
2019-05-25T22:55:37.241Z,11.50
2019-05-25T22:58:07.854Z,8.15
2019-05-25T23:00:38.374Z,8.40
2019-05-25T23:03:08.672Z,6.42
2019-05-25T23:05:39.633Z,4.10
2019-05-25T23:08:11.064Z,4.47
2019-05-25T23:10:41.354Z,6.47
2019-05-25T23:13:11.722Z,7.20
2019-05-25T23:15:42.031Z,7.87
2019-05-25T23:18:12.320Z,3.97
2019-05-25T23:20:42.623Z,5.62
2019-05-25T23:23:12.923Z,4.10
2019-05-25T23:25:43.229Z,5.70
2019-05-25T23:28:13.516Z,4.17
2019-05-25T23:30:43.828Z,7.70
2019-05-25T23:33:14.158Z,5.47
2019-05-25T23:35:44.437Z,2.27
2019-05-25T23:38:14.725Z,4.87
2019-05-25T23:40:45.007Z,4.03
2019-05-25T23:43:15.302Z,2.83
2019-05-25T23:45:45.581Z,3.60
2019-05-25T23:48:16.494Z,4.53
2019-05-25T23:50:46.839Z,3.80
2019-05-25T23:53:17.133Z,4.70
2019-05-25T23:55:47.487Z,2.45
2019-05-25T23:58:17.768Z,3.08
